createdAt,value
2022-08-30T00:00:39.573Z,100974.75
2022-08-30T00:03:08.483Z,100966.16
2022-08-30T00:05:36.658Z,100967.19
2022-08-30T00:08:05.882Z,100968.50
2022-08-30T00:10:34.169Z,100971.88
2022-08-30T00:13:01.884Z,100964.25
2022-08-30T00:15:30.255Z,100966.78
2022-08-30T00:17:57.839Z,100966.94
2022-08-30T00:20:28.579Z,100971.97
2022-08-30T00:22:56.103Z,100976.56
2022-08-30T00:25:25.135Z,100975.22
2022-08-30T00:27:52.633Z,100971.34
2022-08-30T00:30:20.949Z,100966.03
2022-08-30T00:32:48.643Z,100969.78
2022-08-30T00:35:20.443Z,100971.88
2022-08-30T00:37:48.859Z,100968.81
2022-08-30T00:40:17.551Z,100968.69
2022-08-30T00:42:50.590Z,100971.91
2022-08-30T00:45:22.374Z,100964.31
2022-08-30T00:47:50.009Z,100971.50
2022-08-30T00:50:20.340Z,100967.59
2022-08-30T00:52:50.435Z,100969.50
2022-08-30T00:55:18.973Z,100970.97
2022-08-30T00:57:49.456Z,100971.66
2022-08-30T01:00:17.740Z,100979.75
2022-08-30T01:02:45.347Z,100972.94
2022-08-30T01:05:16.749Z,100973.59
2022-08-30T01:07:44.464Z,100977.59
2022-08-30T01:10:16.669Z,100983.81
2022-08-30T01:12:44.942Z,100986.56
2022-08-30T01:15:15.436Z,100982.06
2022-08-30T01:17:45.718Z,100984.53
2022-08-30T01:20:15.799Z,100985.00
2022-08-30T01:22:48.962Z,100983.78
2022-08-30T01:25:20.852Z,100987.53
2022-08-30T01:27:51.970Z,100988.97
2022-08-30T01:30:19.831Z,100987.06
2022-08-30T01:32:48.374Z,100983.94
2022-08-30T01:35:18.231Z,100981.53
2022-08-30T01:37:46.363Z,100983.34
2022-08-30T01:40:15.016Z,100976.78
2022-08-30T01:42:43.858Z,100978.75
2022-08-30T01:45:12.142Z,100968.28
2022-08-30T01:47:40.323Z,100961.50
2022-08-30T01:50:09.145Z,100965.50
2022-08-30T01:52:37.052Z,100975.53
2022-08-30T01:55:05.243Z,100973.28
2022-08-30T01:57:32.770Z,100980.78
2022-08-30T02:00:01.651Z,100977.50
2022-08-30T02:02:30.472Z,100968.25
2022-08-30T02:04:58.522Z,100979.03
2022-08-30T02:07:26.317Z,100962.50
2022-08-30T02:09:54.751Z,100962.66
2022-08-30T02:12:22.348Z,100964.72
2022-08-30T02:14:49.882Z,100952.53
2022-08-30T02:17:19.881Z,100965.47
2022-08-30T02:19:47.655Z,100968.00
2022-08-30T02:22:16.147Z,100964.22
2022-08-30T02:24:43.655Z,100967.13
2022-08-30T02:27:11.167Z,100969.28
2022-08-30T02:29:38.951Z,100969.06
2022-08-30T02:32:06.773Z,100968.44
2022-08-30T02:34:35.638Z,100958.09
2022-08-30T02:37:03.143Z,100965.38
2022-08-30T02:39:30.666Z,100963.41
2022-08-30T02:41:58.376Z,100977.31
2022-08-30T02:44:25.884Z,100969.00
2022-08-30T02:46:53.419Z,100963.44
2022-08-30T02:49:33.059Z,100967.84
2022-08-30T02:52:03.537Z,100963.34
2022-08-30T02:54:33.102Z,100964.16
2022-08-30T02:57:04.454Z,100960.53
2022-08-30T02:59:32.559Z,100959.25
2022-08-30T03:02:00.167Z,100960.13
2022-08-30T03:04:27.649Z,100958.13
2022-08-30T03:06:55.365Z,100948.81
2022-08-30T03:09:24.545Z,100945.94
2022-08-30T03:11:52.113Z,100944.66
2022-08-30T03:14:19.710Z,100963.38
2022-08-30T03:16:47.273Z,100957.22
2022-08-30T03:19:14.886Z,100948.13
2022-08-30T03:21:42.416Z,100947.13
2022-08-30T03:24:09.892Z,100961.44
2022-08-30T03:26:40.361Z,100947.75
2022-08-30T03:29:10.709Z,100951.44
2022-08-30T03:31:53.011Z,100951.03
2022-08-30T03:34:21.996Z,100934.44
2022-08-30T03:36:49.756Z,100941.28
2022-08-30T03:39:17.310Z,100942.75
2022-08-30T03:41:46.681Z,100955.41
2022-08-30T03:44:14.173Z,100955.19
2022-08-30T03:46:42.801Z,100948.78
2022-08-30T03:49:10.306Z,100949.41
2022-08-30T03:51:37.818Z,100958.53
2022-08-30T03:54:05.441Z,100964.78
2022-08-30T03:56:32.961Z,100941.41
2022-08-30T03:59:01.938Z,100947.84
2022-08-30T04:01:29.484Z,100938.69
2022-08-30T04:03:57.594Z,100946.72
2022-08-30T04:06:25.072Z,100949.81
2022-08-30T04:08:52.581Z,100946.59
2022-08-30T04:11:20.606Z,100947.47
2022-08-30T04:13:49.387Z,100942.94
2022-08-30T04:16:18.420Z,100957.03
2022-08-30T04:18:45.961Z,100954.59
2022-08-30T04:21:14.266Z,100953.00
2022-08-30T04:23:41.842Z,100954.66
2022-08-30T04:26:09.794Z,100955.28
2022-08-30T04:28:37.296Z,100955.50
2022-08-30T04:31:11.938Z,100956.78
2022-08-30T04:33:41.429Z,100959.50
2022-08-30T04:36:11.074Z,100960.13
2022-08-30T04:38:39.181Z,100953.47
2022-08-30T04:41:11.204Z,100961.13
2022-08-30T04:43:39.409Z,100961.31
2022-08-30T04:46:07.741Z,100968.13
2022-08-30T04:48:35.994Z,100970.81
2022-08-30T04:51:06.799Z,100965.84
2022-08-30T04:53:34.467Z,100975.56
2022-08-30T04:56:02.025Z,100962.81
2022-08-30T04:58:29.492Z,100973.50
2022-08-30T05:00:56.988Z,100972.28
2022-08-30T05:03:24.505Z,100970.88
2022-08-30T05:05:52.291Z,100970.44
2022-08-30T05:08:24.597Z,100977.88
2022-08-30T05:10:53.017Z,100977.25
2022-08-30T05:13:26.271Z,100978.72
2022-08-30T05:16:04.927Z,100974.41
2022-08-30T05:18:32.479Z,100972.50
2022-08-30T05:21:08.758Z,100979.78
2022-08-30T05:23:37.996Z,100986.00
2022-08-30T05:26:07.488Z,100988.47
2022-08-30T05:28:35.584Z,100986.38
2022-08-30T05:31:03.139Z,100993.22
2022-08-30T05:33:30.645Z,100991.34
2022-08-30T05:36:07.057Z,100991.97
2022-08-30T05:38:34.596Z,101004.13
2022-08-30T05:41:08.267Z,100998.13
2022-08-30T05:43:38.914Z,101003.91
2022-08-30T05:46:07.885Z,101002.25
2022-08-30T05:48:37.194Z,101009.88
2022-08-30T05:51:06.539Z,101013.16
2022-08-30T05:53:34.077Z,101015.16
2022-08-30T05:56:04.772Z,101004.81
2022-08-30T05:58:32.672Z,101008.47
2022-08-30T06:01:00.443Z,101016.31
2022-08-30T06:03:28.943Z,101011.25
2022-08-30T06:05:56.562Z,101005.44
2022-08-30T06:08:24.057Z,101014.06
2022-08-30T06:10:51.892Z,101009.03
2022-08-30T06:13:20.700Z,101006.50
2022-08-30T06:15:48.237Z,101010.59
2022-08-30T06:18:15.887Z,100995.06
2022-08-30T06:20:44.317Z,100994.63
2022-08-30T06:23:20.001Z,100995.38
2022-08-30T06:25:58.284Z,100996.59
2022-08-30T06:28:44.106Z,101001.56
2022-08-30T06:31:44.838Z,101008.53
2022-08-30T06:34:46.447Z,100995.16
2022-08-30T06:37:48.863Z,100996.53
2022-08-30T06:40:49.946Z,101001.78
2022-08-30T06:43:49.062Z,101002.22
2022-08-30T06:46:55.756Z,100999.84
2022-08-30T06:50:03.001Z,101006.41
2022-08-30T06:52:27.693Z,100999.69
2022-08-30T06:54:58.843Z,101008.09
2022-08-30T06:57:27.150Z,101006.34
2022-08-30T07:00:09.547Z,101010.31
2022-08-30T07:02:48.969Z,101002.06
2022-08-30T07:05:31.030Z,101007.38
2022-08-30T07:08:09.444Z,101009.84
2022-08-30T07:10:53.336Z,101010.19
2022-08-30T07:13:48.790Z,101012.13
2022-08-30T07:16:16.450Z,101015.78
2022-08-30T07:18:56.440Z,101021.56
2022-08-30T07:21:26.379Z,101020.78
2022-08-30T07:23:54.803Z,101020.94
2022-08-30T07:26:24.127Z,101025.00
2022-08-30T07:28:52.320Z,101020.91
2022-08-30T07:31:24.844Z,101024.78
2022-08-30T07:33:54.044Z,101024.91
2022-08-30T07:36:22.261Z,101024.09
2022-08-30T07:38:50.456Z,101026.22
2022-08-30T07:41:21.734Z,101026.09
2022-08-30T07:43:49.345Z,101019.41
2022-08-30T07:46:17.153Z,101020.72
2022-08-30T07:48:44.783Z,101032.56
2022-08-30T07:51:16.209Z,101030.69
2022-08-30T07:53:43.874Z,101030.84
2022-08-30T07:56:11.681Z,101032.94
2022-08-30T07:58:39.710Z,101024.72
2022-08-30T08:01:08.572Z,101034.78
2022-08-30T08:03:36.367Z,101035.53
2022-08-30T08:06:05.363Z,101036.47
2022-08-30T08:08:34.762Z,101026.72
2022-08-30T08:11:07.605Z,101039.56
2022-08-30T08:13:45.195Z,101032.69
2022-08-30T08:16:22.997Z,101036.19
2022-08-30T08:18:50.640Z,101025.84
2022-08-30T08:21:18.139Z,101034.88
2022-08-30T08:23:47.065Z,101024.97
2022-08-30T08:26:14.585Z,101030.41
2022-08-30T08:28:42.427Z,101031.31
2022-08-30T08:31:15.693Z,101030.94
2022-08-30T08:33:43.287Z,101038.91
2022-08-30T08:36:10.798Z,101032.19
2022-08-30T08:38:38.313Z,101031.06
2022-08-30T08:41:12.756Z,101030.09
2022-08-30T08:43:41.068Z,101034.41
2022-08-30T08:46:15.733Z,101027.84
2022-08-30T08:48:59.439Z,101036.72
2022-08-30T08:51:47.310Z,101030.56
2022-08-30T08:54:22.569Z,101032.13
2022-08-30T08:56:51.632Z,101030.66
2022-08-30T08:59:19.303Z,101027.22
2022-08-30T09:01:48.119Z,101023.50
2022-08-30T09:04:20.634Z,101018.03
2022-08-30T09:06:54.945Z,101019.31
2022-08-30T09:09:25.659Z,101011.25
2022-08-30T09:11:54.610Z,101012.88
2022-08-30T09:14:25.433Z,101006.28
2022-08-30T09:17:02.684Z,101008.75
2022-08-30T09:19:40.809Z,101005.97
2022-08-30T09:22:27.703Z,101004.47
2022-08-30T09:25:01.398Z,100995.91
2022-08-30T09:27:33.425Z,100998.38
2022-08-30T09:30:05.032Z,100993.81
2022-08-30T09:32:36.642Z,101000.81
2022-08-30T09:35:07.214Z,100986.47
2022-08-30T09:37:39.051Z,100987.66
2022-08-30T09:40:14.435Z,100992.66
2022-08-30T09:43:00.136Z,100989.44
2022-08-30T09:45:32.802Z,100982.13
2022-08-30T09:48:00.364Z,100978.31
2022-08-30T09:50:32.172Z,100985.06
2022-08-30T09:53:09.708Z,100976.19
2022-08-30T09:55:48.991Z,100975.69
2022-08-30T09:58:29.340Z,100975.22
2022-08-30T10:01:04.711Z,100973.09
2022-08-30T10:03:40.233Z,100961.72
2022-08-30T10:06:13.955Z,100963.16
2022-08-30T10:08:52.142Z,100955.88
2022-08-30T10:11:27.424Z,100949.91
2022-08-30T10:14:09.557Z,100953.53
2022-08-30T10:16:46.409Z,100953.06
2022-08-30T10:19:21.720Z,100947.34
2022-08-30T10:21:53.723Z,100943.81
2022-08-30T10:24:24.391Z,100939.28
2022-08-30T10:26:55.603Z,100942.28
2022-08-30T10:29:27.017Z,100932.22
2022-08-30T10:31:57.649Z,100936.06
2022-08-30T10:34:28.078Z,100937.72
2022-08-30T10:36:58.226Z,100936.13
2022-08-30T10:39:30.928Z,100935.31
2022-08-30T10:42:04.382Z,100927.44
2022-08-30T10:44:38.812Z,100925.00
2022-08-30T10:47:23.343Z,100923.38
2022-08-30T10:49:55.473Z,100920.63
2022-08-30T10:52:27.477Z,100919.28
2022-08-30T10:54:58.585Z,100919.84
2022-08-30T10:57:26.324Z,100927.47
2022-08-30T10:59:59.378Z,100920.38
2022-08-30T11:02:50.047Z,100924.19
2022-08-30T11:05:40.627Z,100924.16
2022-08-30T11:08:20.434Z,100908.91
2022-08-30T11:10:53.117Z,100910.50
2022-08-30T11:13:24.337Z,100913.50
2022-08-30T11:16:01.203Z,100907.22
2022-08-30T11:18:30.205Z,100903.94
2022-08-30T11:21:19.015Z,100909.63
2022-08-30T11:24:00.211Z,100910.72
2022-08-30T11:26:58.019Z,100896.25
2022-08-30T11:29:32.681Z,100894.91
2022-08-30T11:32:20.873Z,100894.25
2022-08-30T11:34:56.617Z,100890.94
2022-08-30T11:37:35.813Z,100890.44
2022-08-30T11:40:07.692Z,100889.00
2022-08-30T11:42:44.615Z,100878.59
2022-08-30T11:45:44.324Z,100887.25
2022-08-30T11:48:53.483Z,100882.03
2022-08-30T11:55:01.539Z,100877.28
2022-08-30T11:57:32.231Z,100864.75
2022-08-30T12:00:08.128Z,100872.56
2022-08-30T12:02:48.398Z,100867.75
2022-08-30T12:05:51.945Z,100862.72
2022-08-30T12:08:59.562Z,100854.88
2022-08-30T12:12:01.395Z,100847.75
2022-08-30T12:14:48.702Z,100855.38
2022-08-30T12:17:40.018Z,100852.56
2022-08-30T12:20:17.564Z,100858.56
2022-08-30T12:22:46.575Z,100858.09
2022-08-30T12:25:18.080Z,100853.31
2022-08-30T12:27:45.722Z,100855.72
2022-08-30T12:30:15.308Z,100842.22
2022-08-30T12:32:47.323Z,100843.91
2022-08-30T12:35:20.988Z,100838.47
2022-08-30T12:38:01.610Z,100843.22
2022-08-30T12:40:31.042Z,100836.16
2022-08-30T12:43:01.041Z,100833.41
2022-08-30T12:45:34.007Z,100831.25
2022-08-30T12:48:05.710Z,100829.28
2022-08-30T12:50:37.746Z,100834.16
2022-08-30T12:53:13.541Z,100827.66
2022-08-30T12:55:52.269Z,100826.63
2022-08-30T12:58:35.811Z,100822.75
2022-08-30T13:01:18.488Z,100826.97
2022-08-30T13:03:56.700Z,100815.44
2022-08-30T13:06:39.109Z,100819.81
2022-08-30T13:09:08.633Z,100818.66
2022-08-30T13:11:36.218Z,100813.09
2022-08-30T13:14:32.819Z,100809.31
2022-08-30T13:17:22.277Z,100806.66
2022-08-30T13:20:01.637Z,100804.34
2022-08-30T13:22:31.347Z,100807.53
2022-08-30T13:25:01.361Z,100804.44
2022-08-30T13:27:30.071Z,100792.78
2022-08-30T13:29:59.415Z,100800.22
2022-08-30T13:32:27.528Z,100796.34
2022-08-30T13:34:55.011Z,100786.44
2022-08-30T13:40:15.300Z,100783.25
2022-08-30T13:42:43.004Z,100777.09
2022-08-30T13:45:42.629Z,100777.91
2022-08-30T13:48:01.225Z,100778.81
2022-08-30T13:50:28.762Z,100775.25
2022-08-30T13:52:58.197Z,100768.56
2022-08-30T13:55:27.213Z,100773.16
2022-08-30T13:57:56.611Z,100766.34
2022-08-30T14:00:26.156Z,100771.81
2022-08-30T14:02:56.081Z,100773.63
2022-08-30T14:11:06.422Z,100768.75
2022-08-30T14:13:33.997Z,100770.34
2022-08-30T14:18:51.171Z,100756.94
2022-08-30T14:21:21.226Z,100749.44
2022-08-30T14:23:51.856Z,100748.94
2022-08-30T14:26:42.595Z,100756.88
2022-08-30T14:29:24.884Z,100746.38
2022-08-30T14:32:56.547Z,100746.00
2022-08-30T14:35:25.657Z,100745.09
2022-08-30T14:38:05.921Z,100737.97
2022-08-30T14:41:04.267Z,100736.13
2022-08-30T14:44:28.036Z,100741.25
2022-08-30T14:47:15.077Z,100741.94
2022-08-30T14:49:53.759Z,100739.59
2022-08-30T14:55:33.821Z,100717.97
2022-08-30T14:58:17.636Z,100717.59
2022-08-30T15:00:54.296Z,100721.13
2022-08-30T15:03:38.294Z,100715.56
2022-08-30T15:07:45.868Z,100709.06
2022-08-30T15:12:29.235Z,100699.19
2022-08-30T15:15:23.885Z,100699.41
2022-08-30T15:22:15.946Z,100685.31
2022-08-30T15:24:58.694Z,100697.66
2022-08-30T15:27:28.782Z,100684.06
2022-08-30T15:29:56.631Z,100702.13
2022-08-30T15:32:24.394Z,100691.88
2022-08-30T15:34:55.997Z,100686.88
2022-08-30T15:37:25.534Z,100685.69
2022-08-30T15:39:53.419Z,100677.88
2022-08-30T15:42:21.434Z,100675.66
2022-08-30T15:44:51.540Z,100676.38
2022-08-30T15:47:20.461Z,100675.34
2022-08-30T15:49:55.121Z,100675.16
2022-08-30T15:52:22.593Z,100677.00
2022-08-30T15:54:51.449Z,100667.34
2022-08-30T15:57:19.004Z,100674.53
2022-08-30T15:59:46.832Z,100669.38
2022-08-30T16:02:14.371Z,100665.81
2022-08-30T16:04:44.286Z,100676.88
2022-08-30T16:07:13.987Z,100673.91
2022-08-30T16:09:41.772Z,100668.84
2022-08-30T16:12:10.826Z,100670.25
2022-08-30T16:14:38.735Z,100665.38
2022-08-30T16:17:06.400Z,100671.44
2022-08-30T16:19:34.213Z,100671.03
2022-08-30T16:22:01.805Z,100669.38
2022-08-30T16:24:29.446Z,100672.44
2022-08-30T16:26:57.310Z,100668.97
2022-08-30T16:29:26.285Z,100666.53
2022-08-30T16:31:54.046Z,100666.00
2022-08-30T16:34:22.217Z,100661.34
2022-08-30T16:36:50.000Z,100664.09
2022-08-30T16:39:17.872Z,100665.78
2022-08-30T16:41:46.440Z,100655.13
2022-08-30T16:44:15.917Z,100661.66
2022-08-30T16:46:52.577Z,100655.34
2022-08-30T16:49:21.053Z,100660.31
2022-08-30T16:51:50.644Z,100662.16
2022-08-30T16:54:18.405Z,100660.31
2022-08-30T16:56:46.016Z,100659.81
2022-08-30T16:59:14.526Z,100660.41
2022-08-30T17:01:43.332Z,100662.63
2022-08-30T17:04:18.831Z,100669.53
2022-08-30T17:06:47.740Z,100666.38
2022-08-30T17:09:17.786Z,100669.13
2022-08-30T17:11:45.614Z,100667.22
2022-08-30T17:14:13.182Z,100672.78
2022-08-30T17:16:42.179Z,100672.81
2022-08-30T17:19:11.504Z,100675.91
2022-08-30T17:21:40.490Z,100678.16
2022-08-30T17:24:08.110Z,100672.44
2022-08-30T17:26:37.504Z,100672.44
2022-08-30T17:29:05.775Z,100682.38
2022-08-30T17:31:35.682Z,100677.50
2022-08-30T17:34:05.775Z,100685.69
2022-08-30T17:36:35.582Z,100693.16
2022-08-30T17:39:11.449Z,100692.38
2022-08-30T17:41:39.897Z,100684.69
2022-08-30T17:44:10.841Z,100702.41
2022-08-30T17:46:38.413Z,100692.84
2022-08-30T17:49:06.678Z,100688.81
2022-08-30T17:51:40.762Z,100682.31
2022-08-30T17:54:11.877Z,100693.31
2022-08-30T17:56:53.237Z,100696.69
2022-08-30T17:59:25.331Z,100702.78
2022-08-30T18:02:03.778Z,100705.06
2022-08-30T18:04:42.099Z,100704.81
2022-08-30T18:07:13.756Z,100702.25
2022-08-30T18:09:48.965Z,100709.34
2022-08-30T18:13:12.564Z,100710.28
2022-08-30T18:15:15.587Z,100710.31
2022-08-30T18:17:57.714Z,100714.69
2022-08-30T18:20:42.278Z,100719.72
2022-08-30T18:23:18.995Z,100723.59
2022-08-30T18:26:04.228Z,100722.34
2022-08-30T18:28:38.453Z,100723.97
2022-08-30T18:31:16.332Z,100729.19
2022-08-30T18:33:48.822Z,100740.72
2022-08-30T18:36:18.613Z,100748.09
2022-08-30T18:39:05.835Z,100738.34
2022-08-30T18:41:43.123Z,100751.75
2022-08-30T18:44:27.262Z,100752.09
2022-08-30T18:46:57.256Z,100737.16
2022-08-30T18:49:27.173Z,100751.94
2022-08-30T18:52:11.368Z,100742.13
2022-08-30T18:54:52.783Z,100740.59
2022-08-30T18:57:55.089Z,100744.69
2022-08-30T19:00:25.182Z,100749.38
2022-08-30T19:02:53.602Z,100753.75
2022-08-30T19:05:40.008Z,100746.97
2022-08-30T19:08:13.437Z,100752.72
2022-08-30T19:10:43.220Z,100756.84
2022-08-30T19:13:17.206Z,100762.06
2022-08-30T19:16:29.260Z,100752.81
2022-08-30T19:18:47.695Z,100762.97
2022-08-30T19:21:34.097Z,100761.63
2022-08-30T19:24:03.328Z,100764.13
2022-08-30T19:27:00.987Z,100768.19
2022-08-30T19:29:32.075Z,100765.47
2022-08-30T19:32:07.314Z,100769.03
2022-08-30T19:34:51.080Z,100767.97
2022-08-30T19:37:30.630Z,100762.53
2022-08-30T19:42:57.085Z,100777.81
2022-08-30T19:45:26.058Z,100784.38
2022-08-30T19:48:24.773Z,100783.28
2022-08-30T19:51:10.420Z,100791.75
2022-08-30T19:53:38.778Z,100780.28
2022-08-30T19:56:07.020Z,100784.09
2022-08-30T19:58:38.133Z,100783.81
2022-08-30T20:01:25.584Z,100784.06
2022-08-30T20:04:01.994Z,100783.53
2022-08-30T20:06:32.721Z,100787.06
2022-08-30T20:09:10.606Z,100782.16
2022-08-30T20:11:43.244Z,100790.34
2022-08-30T20:14:21.697Z,100795.22
2022-08-30T20:16:53.487Z,100799.56
2022-08-30T20:19:27.508Z,100799.81
2022-08-30T20:22:07.916Z,100809.31
2022-08-30T20:24:44.335Z,100811.50
2022-08-30T20:27:13.605Z,100806.03
2022-08-30T20:29:47.095Z,100807.66
2022-08-30T20:32:16.821Z,100802.16
2022-08-30T20:34:49.066Z,100806.75
2022-08-30T20:37:19.310Z,100813.56
2022-08-30T20:39:46.894Z,100818.72
2022-08-30T20:42:14.424Z,100818.97
2022-08-30T20:44:48.417Z,100827.41
2022-08-30T20:47:35.262Z,100821.34
2022-08-30T20:50:09.133Z,100830.38
2022-08-30T20:52:44.338Z,100825.75
2022-08-30T20:55:16.348Z,100818.09
2022-08-30T20:57:50.978Z,100815.34
2022-08-30T21:00:19.563Z,100821.84
2022-08-30T21:02:58.568Z,100826.72
2022-08-30T21:05:37.578Z,100823.94
2022-08-30T21:08:13.105Z,100823.09
2022-08-30T21:10:41.234Z,100826.59
2022-08-30T21:13:13.848Z,100821.09
2022-08-30T21:16:00.642Z,100830.34
2022-08-30T21:18:34.160Z,100825.94
2022-08-30T21:21:26.715Z,100827.00
2022-08-30T21:24:12.731Z,100827.25
2022-08-30T21:26:53.276Z,100832.94
2022-08-30T21:29:30.393Z,100837.53
2022-08-30T21:32:04.206Z,100829.31
2022-08-30T21:34:58.679Z,100829.53
2022-08-30T21:37:35.923Z,100824.94
2022-08-30T21:40:34.278Z,100829.44
2022-08-30T21:43:05.648Z,100838.69
2022-08-30T21:45:41.102Z,100832.59
2022-08-30T21:48:11.642Z,100835.31
2022-08-30T21:50:45.396Z,100828.78
2022-08-30T21:53:19.476Z,100830.66
2022-08-30T21:55:57.993Z,100839.06
2022-08-30T21:58:33.912Z,100835.13
2022-08-30T22:01:12.047Z,100838.50
2022-08-30T22:03:56.394Z,100833.50
2022-08-30T22:06:30.909Z,100832.38
2022-08-30T22:09:02.457Z,100836.94
2022-08-30T22:12:18.043Z,100840.94
2022-08-30T22:51:21.552Z,100865.00
2022-08-30T23:29:05.166Z,100877.16
2022-08-30T23:38:23.149Z,100868.41
2022-08-30T23:41:08.426Z,100876.25
2022-08-30T23:43:55.648Z,100877.03
2022-08-30T23:46:41.048Z,100876.25
2022-08-30T23:49:26.019Z,100881.06
2022-08-30T23:52:11.061Z,100879.44
2022-08-30T23:54:57.414Z,100872.94
2022-08-30T23:57:43.125Z,100878.03
